Silver Beach, Washington
Current Conditions -  °F | °C
As of 5:53 PM on Wednesday 22 Oct 2014 (Local Time) from KBLI Reporting Station
Light Rain Light Rain  
Wind Chill: 55°   Ceiling: 2700
Heat Index: 55°   Visibility: 6mi
Dew Point: 51°   Wind: 8mph
Humidity: 86%   Direction: 130°SE
Pressure: 29.55"   Gusts: NA
Location:  48.8172°N, 122.404°W
Report Text: KBLI 230053Z 13007KT 6SM -RA BR BKN027 BKN041 OVC055 13/11 A2955 RMK AO2 SLP011 P0007 T01280106
Loading
Personal Weather Stations






























Interactive Weather Map
Tropical Storm Tracking
New forecast layout! Learn more

10-Day Weather Forecast

Advertisements
Track Severe Weather on mobile